createdAt,value
2023-05-21T00:00:54.095Z,35.47
2023-05-21T00:03:22.296Z,35.77
2023-05-21T00:05:50.544Z,36.67
2023-05-21T00:08:18.812Z,35.73
2023-05-21T00:10:46.891Z,34.77
2023-05-21T00:13:15.020Z,39.87
2023-05-21T00:15:44.561Z,39.27
2023-05-21T00:18:13.013Z,37.03
2023-05-21T00:20:41.652Z,35.80
2023-05-21T00:23:10.355Z,37.57
2023-05-21T00:25:38.493Z,38.03
2023-05-21T00:28:06.650Z,36.30
2023-05-21T00:30:34.746Z,33.43
2023-05-21T00:33:04.277Z,35.00
2023-05-21T00:35:32.426Z,34.80
2023-05-21T00:38:00.810Z,31.97
2023-05-21T00:40:29.153Z,30.63
2023-05-21T00:42:58.142Z,30.10
2023-05-21T00:45:26.276Z,31.00
2023-05-21T00:47:55.613Z,29.57
2023-05-21T00:50:26.105Z,29.90
2023-05-21T00:52:54.410Z,30.40
2023-05-21T00:55:22.917Z,29.37
2023-05-21T00:57:51.322Z,32.80
2023-05-21T01:00:20.075Z,31.60
2023-05-21T01:02:49.930Z,31.00
2023-05-21T01:05:18.212Z,33.07
2023-05-21T01:07:48.373Z,29.73
2023-05-21T01:10:16.656Z,30.80
2023-05-21T01:12:46.707Z,34.93
2023-05-21T01:15:15.210Z,32.10
2023-05-21T01:17:46.182Z,33.70
2023-05-21T01:20:18.100Z,31.03
2023-05-21T01:22:53.159Z,32.13
2023-05-21T01:25:21.277Z,30.60
2023-05-21T01:27:49.541Z,29.50
2023-05-21T01:30:19.256Z,29.90
2023-05-21T01:32:53.385Z,24.47
2023-05-21T01:35:24.166Z,27.10
2023-05-21T01:38:00.703Z,26.30
2023-05-21T01:40:35.678Z,28.37
2023-05-21T01:43:06.839Z,25.30
2023-05-21T01:45:37.648Z,25.17
2023-05-21T01:48:06.904Z,24.63
2023-05-21T01:50:35.492Z,27.40
2023-05-21T01:53:06.057Z,24.33
2023-05-21T01:55:35.759Z,24.37
2023-05-21T01:58:04.149Z,23.83
2023-05-21T02:00:32.751Z,26.00
2023-05-21T02:03:01.088Z,23.47
2023-05-21T02:05:29.307Z,25.10
2023-05-21T02:08:00.040Z,25.30
2023-05-21T02:10:29.565Z,23.43
2023-05-21T02:12:57.638Z,25.67
2023-05-21T02:15:25.877Z,24.53
2023-05-21T02:17:54.121Z,25.67
2023-05-21T02:20:22.846Z,22.70
2023-05-21T02:22:51.359Z,20.63
2023-05-21T02:25:20.762Z,21.53
2023-05-21T02:27:53.559Z,22.57
2023-05-21T02:30:21.935Z,21.37
2023-05-21T02:32:50.778Z,20.10
2023-05-21T02:35:19.063Z,19.50
2023-05-21T02:37:47.143Z,20.07
2023-05-21T02:40:15.585Z,18.40
2023-05-21T02:42:43.778Z,18.47
2023-05-21T02:45:14.062Z,16.90
2023-05-21T02:47:42.192Z,19.40
2023-05-21T02:50:11.111Z,18.83
2023-05-21T02:52:39.292Z,16.47
2023-05-21T02:55:08.474Z,18.43
2023-05-21T02:57:36.602Z,17.47
2023-05-21T03:00:05.996Z,18.83
2023-05-21T03:02:35.769Z,16.30
2023-05-21T03:05:04.028Z,16.87
2023-05-21T03:07:32.482Z,17.97
2023-05-21T03:10:00.619Z,17.67
2023-05-21T03:12:28.737Z,18.03
2023-05-21T03:14:56.820Z,17.57
2023-05-21T03:17:24.946Z,19.40
2023-05-21T03:19:55.262Z,18.40
2023-05-21T03:22:23.361Z,19.40
2023-05-21T03:24:51.665Z,17.10
2023-05-21T03:27:19.853Z,18.27
2023-05-21T03:29:47.932Z,16.97
2023-05-21T03:32:16.202Z,15.80
2023-05-21T03:34:44.412Z,18.40
2023-05-21T03:37:13.873Z,17.90
2023-05-21T03:39:41.933Z,17.23
2023-05-21T03:42:10.116Z,15.63
2023-05-21T03:44:38.214Z,15.90
2023-05-21T03:47:06.629Z,15.40
2023-05-21T03:49:34.740Z,16.40
2023-05-21T03:52:02.905Z,16.00
2023-05-21T03:54:32.364Z,15.13
2023-05-21T03:57:00.850Z,15.30
2023-05-21T03:59:28.956Z,14.47
2023-05-21T04:01:57.080Z,15.50
2023-05-21T04:04:25.221Z,14.17
2023-05-21T04:06:54.303Z,15.07
2023-05-21T04:09:22.644Z,14.10
2023-05-21T04:11:52.126Z,15.40
2023-05-21T04:14:20.207Z,14.83
2023-05-21T04:16:49.254Z,14.70
2023-05-21T04:19:17.563Z,15.20
2023-05-21T04:21:45.943Z,14.83
2023-05-21T04:24:14.131Z,16.10
2023-05-21T04:26:42.405Z,14.37
2023-05-21T04:29:12.018Z,16.20
2023-05-21T04:31:40.167Z,13.67
2023-05-21T04:34:08.286Z,15.30
2023-05-21T04:36:36.707Z,16.97
2023-05-21T04:39:06.348Z,17.20
2023-05-21T04:41:34.434Z,16.50
2023-05-21T04:44:02.558Z,20.57
2023-05-21T04:46:32.130Z,20.80
2023-05-21T04:49:03.007Z,21.63
2023-05-21T04:51:31.284Z,22.27
2023-05-21T04:53:59.673Z,23.23
2023-05-21T04:56:27.810Z,22.17
2023-05-21T04:58:56.149Z,22.50
2023-05-21T05:01:25.614Z,21.07
2023-05-21T05:03:55.166Z,21.90
2023-05-21T05:06:25.810Z,20.80
2023-05-21T05:08:54.167Z,19.33
2023-05-21T05:11:22.371Z,20.33
2023-05-21T05:13:50.535Z,21.40
2023-05-21T05:16:24.954Z,21.53
2023-05-21T05:18:54.964Z,21.67
2023-05-21T05:21:23.922Z,23.33
2023-05-21T05:23:52.108Z,23.90
2023-05-21T05:26:21.440Z,21.90
2023-05-21T05:28:49.522Z,23.80
2023-05-21T05:31:17.672Z,22.57
2023-05-21T05:33:45.808Z,25.10
2023-05-21T05:36:15.313Z,25.93
2023-05-21T05:38:43.410Z,25.87
2023-05-21T05:41:11.536Z,25.70
2023-05-21T05:43:39.654Z,25.20
2023-05-21T05:46:07.833Z,28.77
2023-05-21T05:48:36.029Z,29.77
2023-05-21T05:51:04.158Z,31.20
2023-05-21T05:53:33.627Z,29.37
2023-05-21T05:56:01.729Z,30.97
2023-05-21T05:58:31.162Z,30.83
2023-05-21T06:00:59.316Z,31.43
2023-05-21T06:03:29.502Z,33.43
2023-05-21T06:05:57.770Z,33.17
2023-05-21T06:08:25.946Z,35.50
2023-05-21T06:10:55.445Z,33.73
2023-05-21T06:13:23.512Z,36.77
2023-05-21T06:15:51.676Z,38.30
2023-05-21T06:18:19.837Z,36.33
2023-05-21T06:20:47.961Z,39.43
2023-05-21T06:23:16.078Z,35.03
2023-05-21T06:25:44.162Z,38.90
2023-05-21T06:28:13.951Z,38.07
2023-05-21T06:30:42.210Z,36.73
2023-05-21T06:33:11.491Z,38.40
2023-05-21T06:35:40.350Z,35.87
2023-05-21T06:38:08.457Z,35.73
2023-05-21T06:40:36.658Z,36.73
2023-05-21T06:43:05.285Z,37.20
2023-05-21T06:45:35.018Z,36.30
2023-05-21T06:48:03.392Z,39.00
2023-05-21T06:50:31.487Z,36.23
2023-05-21T06:52:59.573Z,37.13
2023-05-21T06:55:27.670Z,35.67
2023-05-21T06:57:55.818Z,35.90
2023-05-21T07:00:23.926Z,33.70
2023-05-21T07:02:53.570Z,33.90
2023-05-21T07:05:22.017Z,34.90
2023-05-21T07:07:50.136Z,33.40
2023-05-21T07:10:18.364Z,32.83
2023-05-21T07:12:46.504Z,31.70
2023-05-21T07:15:14.597Z,31.07
2023-05-21T07:17:42.741Z,33.73
2023-05-21T07:20:14.150Z,31.03
2023-05-21T07:22:44.787Z,31.37
2023-05-21T07:25:12.908Z,31.37
2023-05-21T07:27:41.000Z,30.93
2023-05-21T07:30:11.572Z,34.50
2023-05-21T07:32:39.756Z,29.63
2023-05-21T07:35:08.517Z,30.70
2023-05-21T07:37:38.025Z,32.33
2023-05-21T07:40:07.908Z,32.77
2023-05-21T07:42:36.903Z,31.07
2023-05-21T07:45:05.522Z,32.10
2023-05-21T07:47:33.841Z,30.03
2023-05-21T07:50:02.008Z,30.53
2023-05-21T07:52:30.186Z,30.53
2023-05-21T07:54:59.777Z,31.63
2023-05-21T07:57:28.191Z,29.73
2023-05-21T07:59:56.529Z,27.77
2023-05-21T08:02:24.676Z,31.13
2023-05-21T08:04:55.196Z,31.83
2023-05-21T08:07:23.479Z,28.20
2023-05-21T08:09:51.592Z,29.27
2023-05-21T08:12:21.296Z,30.20
2023-05-21T08:14:49.377Z,29.20
2023-05-21T08:17:17.612Z,27.43
2023-05-21T08:19:45.756Z,26.67
2023-05-21T08:22:13.878Z,27.23
2023-05-21T08:24:41.980Z,28.43
2023-05-21T08:27:10.201Z,27.83
2023-05-21T08:29:39.678Z,25.67
2023-05-21T08:32:09.983Z,27.33
2023-05-21T08:34:38.283Z,26.07
2023-05-21T08:37:06.451Z,26.83
2023-05-21T08:39:34.566Z,28.60
2023-05-21T08:42:10.908Z,27.13
2023-05-21T08:44:46.536Z,26.57
2023-05-21T08:47:19.973Z,26.07
2023-05-21T08:49:50.399Z,24.57
2023-05-21T08:52:18.678Z,26.60
2023-05-21T08:54:47.751Z,28.50
2023-05-21T08:57:18.147Z,26.77
2023-05-21T08:59:48.157Z,25.30
2023-05-21T09:02:18.354Z,25.80
2023-05-21T09:04:49.326Z,25.90
2023-05-21T09:07:17.684Z,25.90
2023-05-21T09:09:53.832Z,25.50
2023-05-21T09:12:21.954Z,25.10
2023-05-21T09:14:51.581Z,25.20
2023-05-21T09:17:20.387Z,24.50
2023-05-21T09:20:10.887Z,25.10
2023-05-21T09:22:42.209Z,23.90
2023-05-21T09:25:11.701Z,23.53
2023-05-21T09:27:40.513Z,25.70
2023-05-21T09:30:13.623Z,25.80
2023-05-21T09:32:42.391Z,23.63
2023-05-21T09:35:11.852Z,24.97
2023-05-21T09:37:40.519Z,25.83
2023-05-21T09:40:13.096Z,23.80
2023-05-21T09:42:42.226Z,25.03
2023-05-21T09:45:12.571Z,24.90
2023-05-21T09:47:44.711Z,26.10
2023-05-21T09:50:13.427Z,24.50
2023-05-21T09:52:42.251Z,22.23
2023-05-21T09:55:13.401Z,23.07
2023-05-21T09:57:45.648Z,26.40
2023-05-21T10:00:22.272Z,24.13
2023-05-21T10:02:51.710Z,24.80
2023-05-21T10:05:20.665Z,25.70
2023-05-21T10:07:52.218Z,24.60
2023-05-21T10:10:21.861Z,23.03
2023-05-21T10:12:55.882Z,23.17
2023-05-21T10:15:26.311Z,24.37
2023-05-21T10:17:56.641Z,24.33
2023-05-21T10:20:25.222Z,22.10
2023-05-21T10:22:54.106Z,19.87
2023-05-21T10:25:23.010Z,20.93
2023-05-21T10:27:51.188Z,23.37
2023-05-21T10:30:19.832Z,21.43
2023-05-21T10:32:50.032Z,21.90
2023-05-21T10:35:18.894Z,21.87
2023-05-21T10:37:47.312Z,21.40
2023-05-21T10:40:15.733Z,22.10
2023-05-21T10:43:17.071Z,21.47
2023-05-21T10:45:57.273Z,19.77
2023-05-21T10:48:43.892Z,19.67
2023-05-21T10:51:25.113Z,19.97
2023-05-21T10:54:09.943Z,20.90
2023-05-21T10:56:43.549Z,18.57
2023-05-21T10:59:22.240Z,18.57
2023-05-21T11:01:52.888Z,18.00
2023-05-21T11:04:27.461Z,17.80
2023-05-21T11:06:56.333Z,16.43
2023-05-21T11:09:25.259Z,17.53
2023-05-21T11:11:54.347Z,17.77
2023-05-21T11:14:32.847Z,19.00
2023-05-21T11:17:01.390Z,16.80
2023-05-21T11:19:39.086Z,16.93
2023-05-21T11:22:09.474Z,17.50
2023-05-21T11:24:42.398Z,18.40
2023-05-21T11:27:10.753Z,15.80
2023-05-21T11:29:41.560Z,15.67
2023-05-21T11:32:10.600Z,15.67
2023-05-21T11:34:41.733Z,15.23
2023-05-21T11:37:27.653Z,16.13
2023-05-21T11:39:56.618Z,16.23
2023-05-21T11:42:35.108Z,15.97
2023-05-21T11:45:04.477Z,16.43
2023-05-21T11:47:33.470Z,16.93
2023-05-21T11:50:04.859Z,16.10
2023-05-21T11:52:33.798Z,16.03
2023-05-21T11:55:01.980Z,15.23
2023-05-21T11:57:31.909Z,15.63
2023-05-21T12:00:01.339Z,15.87
2023-05-21T12:02:32.777Z,15.43
2023-05-21T12:05:02.466Z,15.97
2023-05-21T12:07:31.307Z,16.03
2023-05-21T12:09:59.700Z,16.53
2023-05-21T12:12:35.628Z,16.00
2023-05-21T12:15:12.545Z,16.70
2023-05-21T12:17:41.136Z,14.67
2023-05-21T12:20:16.625Z,15.33
2023-05-21T12:22:45.386Z,15.67
2023-05-21T12:25:13.513Z,14.43
2023-05-21T12:27:45.127Z,14.23
2023-05-21T12:30:13.689Z,16.23
2023-05-21T12:32:44.108Z,15.30
2023-05-21T12:35:23.988Z,16.33
2023-05-21T12:37:53.080Z,17.87
2023-05-21T12:40:22.291Z,16.33
2023-05-21T12:42:52.055Z,17.47
2023-05-21T12:45:22.733Z,15.20
2023-05-21T12:47:56.151Z,16.90
2023-05-21T12:50:27.916Z,14.20
2023-05-21T12:52:57.015Z,15.63
2023-05-21T12:55:26.676Z,15.17
2023-05-21T12:58:04.504Z,17.30
2023-05-21T13:00:33.484Z,16.27
2023-05-21T13:03:02.014Z,17.57
2023-05-21T13:05:31.819Z,18.70
2023-05-21T13:07:59.978Z,18.47
2023-05-21T13:10:28.105Z,18.27
2023-05-21T13:12:56.600Z,18.47
2023-05-21T13:15:24.734Z,20.23
2023-05-21T13:17:55.103Z,21.80
2023-05-21T13:20:27.303Z,20.57
2023-05-21T13:22:56.976Z,21.10
2023-05-21T13:25:28.992Z,20.33
2023-05-21T13:27:57.829Z,19.67
2023-05-21T13:30:25.939Z,21.13
2023-05-21T13:32:54.375Z,20.73
2023-05-21T13:35:22.758Z,18.87
2023-05-21T13:37:51.046Z,18.87
2023-05-21T13:40:20.881Z,17.23
2023-05-21T13:42:50.299Z,17.63
2023-05-21T13:45:21.342Z,19.40
2023-05-21T13:47:50.036Z,17.13
2023-05-21T13:50:18.293Z,17.00
2023-05-21T13:52:47.071Z,16.67
2023-05-21T13:55:15.952Z,17.90
2023-05-21T13:57:45.936Z,18.20
2023-05-21T14:00:16.151Z,17.83
2023-05-21T14:02:45.313Z,17.50
2023-05-21T14:05:13.833Z,18.07
2023-05-21T14:07:42.800Z,16.90
2023-05-21T14:10:11.728Z,17.33
2023-05-21T14:12:40.736Z,17.80
2023-05-21T14:15:11.973Z,16.33
2023-05-21T14:17:42.424Z,15.03
2023-05-21T14:20:11.568Z,16.70
2023-05-21T14:22:39.975Z,16.23
2023-05-21T14:25:08.829Z,16.47
2023-05-21T14:27:38.353Z,14.67
2023-05-21T14:30:07.629Z,13.60
2023-05-21T14:32:37.198Z,14.60
2023-05-21T14:35:06.410Z,13.33
2023-05-21T14:37:34.522Z,13.87
2023-05-21T14:40:02.706Z,14.17
2023-05-21T14:42:30.941Z,12.37
2023-05-21T14:45:10.878Z,13.17
2023-05-21T14:47:48.824Z,13.67
2023-05-21T14:50:18.462Z,12.43
2023-05-21T14:52:46.656Z,13.27
2023-05-21T14:55:16.752Z,12.23
2023-05-21T14:57:45.174Z,12.50
2023-05-21T15:00:14.101Z,12.33
2023-05-21T15:02:42.558Z,11.93
2023-05-21T15:05:12.235Z,13.23
2023-05-21T15:07:40.339Z,12.03
2023-05-21T15:10:09.948Z,11.47
2023-05-21T15:12:38.156Z,11.37
2023-05-21T15:15:07.366Z,11.10
2023-05-21T15:17:35.908Z,11.40
2023-05-21T15:20:04.853Z,10.90
2023-05-21T15:22:34.972Z,11.30
2023-05-21T15:25:03.711Z,10.60
2023-05-21T15:27:31.871Z,10.60
2023-05-21T15:30:00.219Z,10.50
2023-05-21T15:32:28.559Z,11.33
2023-05-21T15:34:56.761Z,10.63
2023-05-21T15:37:24.895Z,10.23
2023-05-21T15:39:54.388Z,10.13
2023-05-21T15:42:22.585Z,11.27
2023-05-21T15:44:50.674Z,10.90
2023-05-21T15:47:18.773Z,11.03
2023-05-21T15:49:46.983Z,10.87
2023-05-21T15:52:15.091Z,11.00
2023-05-21T15:54:43.349Z,11.20
2023-05-21T15:57:12.805Z,10.40
2023-05-21T15:59:40.935Z,11.60
2023-05-21T16:02:09.893Z,10.80
2023-05-21T16:04:37.997Z,10.53
2023-05-21T16:07:06.486Z,10.70
2023-05-21T16:09:35.402Z,10.87
2023-05-21T16:12:03.545Z,11.13
2023-05-21T16:14:33.004Z,11.17
2023-05-21T16:17:01.097Z,10.70
2023-05-21T16:19:29.265Z,11.03
2023-05-21T16:21:57.512Z,10.77
2023-05-21T16:24:25.661Z,10.60
2023-05-21T16:26:53.780Z,10.27
2023-05-21T16:29:22.083Z,9.10
2023-05-21T16:31:51.795Z,10.40
2023-05-21T16:34:19.892Z,9.97
2023-05-21T16:36:48.000Z,10.60
2023-05-21T16:39:16.326Z,11.50
2023-05-21T16:41:45.010Z,11.00
2023-05-21T16:44:13.998Z,10.50
2023-05-21T16:46:42.156Z,10.90
2023-05-21T16:49:11.625Z,10.73
2023-05-21T16:51:39.745Z,10.73
2023-05-21T16:54:07.830Z,10.47
2023-05-21T16:56:35.916Z,9.97
2023-05-21T16:59:04.144Z,9.67
2023-05-21T17:01:32.321Z,10.23
2023-05-21T17:04:00.587Z,10.90
2023-05-21T17:06:30.227Z,10.50
2023-05-21T17:08:58.475Z,10.37
2023-05-21T17:11:26.698Z,10.00
2023-05-21T17:13:54.793Z,10.50
2023-05-21T17:16:23.695Z,10.80
2023-05-21T17:18:52.373Z,10.07
2023-05-21T17:21:20.787Z,11.27
2023-05-21T17:23:50.244Z,10.73
2023-05-21T17:26:18.383Z,10.73
2023-05-21T17:28:46.673Z,11.23
2023-05-21T17:31:15.436Z,9.93
2023-05-21T17:33:43.521Z,10.60
2023-05-21T17:36:11.649Z,11.73
2023-05-21T17:38:39.811Z,10.57
2023-05-21T17:41:09.276Z,10.47
2023-05-21T17:43:37.406Z,9.27
2023-05-21T17:46:05.592Z,10.03
2023-05-21T17:48:33.702Z,10.20
2023-05-21T17:51:01.795Z,10.27
2023-05-21T17:53:29.987Z,9.57
2023-05-21T17:55:58.332Z,9.80
2023-05-21T17:58:27.827Z,9.87
2023-05-21T18:00:56.027Z,10.20
2023-05-21T18:03:24.258Z,10.37
2023-05-21T18:05:52.376Z,11.00
2023-05-21T18:08:20.499Z,10.90
2023-05-21T18:10:48.922Z,11.03
2023-05-21T18:13:17.026Z,11.53
2023-05-21T18:15:46.496Z,11.10
2023-05-21T18:18:19.850Z,10.53
2023-05-21T18:20:49.836Z,12.30
2023-05-21T18:23:18.019Z,10.47
2023-05-21T18:25:46.133Z,12.00
2023-05-21T18:28:14.262Z,11.83
2023-05-21T18:30:42.354Z,12.00
2023-05-21T18:33:12.588Z,11.87
2023-05-21T18:35:40.752Z,11.20
2023-05-21T18:38:09.950Z,12.20
2023-05-21T18:40:38.696Z,11.70
2023-05-21T18:43:07.102Z,10.47
2023-05-21T18:45:35.886Z,12.10
2023-05-21T18:48:04.120Z,12.10
2023-05-21T18:50:34.322Z,10.77
2023-05-21T18:53:02.643Z,11.17
2023-05-21T18:55:31.341Z,12.93
2023-05-21T18:57:59.858Z,11.97
2023-05-21T19:00:28.052Z,10.60
2023-05-21T19:02:56.630Z,11.33
2023-05-21T19:05:24.861Z,12.20
2023-05-21T19:07:54.492Z,11.60
2023-05-21T19:10:22.670Z,11.03
2023-05-21T19:12:50.926Z,10.17
2023-05-21T19:15:19.384Z,10.80
2023-05-21T19:17:47.633Z,10.73
2023-05-21T19:20:24.317Z,10.53
2023-05-21T19:22:54.037Z,11.47
2023-05-21T19:25:22.173Z,12.10
2023-05-21T19:27:50.662Z,10.80
2023-05-21T19:30:18.919Z,13.47
2023-05-21T19:32:48.023Z,11.80
2023-05-21T19:35:16.539Z,12.77
2023-05-21T19:37:44.798Z,13.70
2023-05-21T19:40:17.561Z,12.27
2023-05-21T19:42:46.253Z,13.53
2023-05-21T19:45:15.572Z,14.30
2023-05-21T19:47:44.222Z,14.93
2023-05-21T19:50:12.781Z,15.17
2023-05-21T19:52:40.877Z,13.73
2023-05-21T19:55:10.388Z,15.60
2023-05-21T19:57:40.067Z,13.90
2023-05-21T20:00:10.417Z,15.17
2023-05-21T20:02:38.601Z,14.57
2023-05-21T20:05:07.714Z,14.83
2023-05-21T20:07:35.843Z,15.10
2023-05-21T20:10:04.014Z,15.90
2023-05-21T20:12:32.172Z,14.53
2023-05-21T20:15:01.682Z,16.40
2023-05-21T20:17:30.455Z,14.70
2023-05-21T20:20:00.506Z,16.20
2023-05-21T20:22:28.673Z,14.47
2023-05-21T20:24:57.723Z,13.77
2023-05-21T20:27:26.165Z,14.10
2023-05-21T20:29:54.257Z,15.67
2023-05-21T20:32:23.808Z,15.87
2023-05-21T20:35:02.948Z,15.30
2023-05-21T20:37:32.476Z,14.77
2023-05-21T20:40:00.689Z,15.53
2023-05-21T20:42:34.664Z,16.27
2023-05-21T20:45:03.350Z,15.67
2023-05-21T20:47:33.873Z,15.67
2023-05-21T20:50:03.273Z,15.37
2023-05-21T20:52:31.553Z,15.03
2023-05-21T20:55:00.115Z,13.90
2023-05-21T20:57:29.712Z,13.70
2023-05-21T20:59:57.932Z,15.10
2023-05-21T21:02:26.840Z,15.33
2023-05-21T21:04:57.853Z,16.37
2023-05-21T21:07:25.959Z,14.10
2023-05-21T21:09:54.061Z,16.77
2023-05-21T21:12:26.446Z,15.47
2023-05-21T21:14:55.096Z,15.83
2023-05-21T21:17:23.315Z,14.37
2023-05-21T21:19:51.435Z,13.90
2023-05-21T21:22:21.103Z,16.73
2023-05-21T21:24:49.215Z,16.70
2023-05-21T21:27:17.328Z,14.23
2023-05-21T21:29:46.378Z,15.67
2023-05-21T21:32:14.622Z,15.80
2023-05-21T21:34:42.740Z,16.40
2023-05-21T21:37:11.587Z,16.57
2023-05-21T21:39:41.139Z,14.10
2023-05-21T21:42:09.358Z,14.50
2023-05-21T21:44:39.194Z,14.90
2023-05-21T21:47:07.673Z,15.10
2023-05-21T21:49:35.814Z,16.00
2023-05-21T21:52:04.000Z,14.23
2023-05-21T21:54:32.084Z,13.97
2023-05-21T21:57:01.591Z,14.43
2023-05-21T21:59:29.724Z,15.07
2023-05-21T22:01:57.893Z,14.70
2023-05-21T22:04:26.105Z,15.30
2023-05-21T22:06:54.721Z,14.00
2023-05-21T22:09:23.176Z,16.00
2023-05-21T22:11:52.021Z,14.83
2023-05-21T22:14:21.538Z,14.17
2023-05-21T22:19:22.108Z,16.20
2023-05-21T22:21:50.408Z,14.77
2023-05-21T22:24:31.500Z,15.17
2023-05-21T22:27:01.405Z,15.40
2023-05-21T22:29:30.931Z,13.90
2023-05-21T22:31:59.119Z,14.13
2023-05-21T22:34:27.205Z,15.07
2023-05-21T22:36:55.440Z,15.10
2023-05-21T22:39:23.582Z,15.60
2023-05-21T22:41:51.718Z,16.27
2023-05-21T22:44:20.486Z,15.20
2023-05-21T22:46:50.038Z,16.63
2023-05-21T22:49:19.735Z,14.83
2023-05-21T22:51:47.899Z,15.00
2023-05-21T22:54:16.008Z,15.50
2023-05-21T22:56:44.997Z,15.37
2023-05-21T22:59:14.855Z,15.13
2023-05-21T23:01:43.068Z,15.67
2023-05-21T23:04:14.040Z,15.70
2023-05-21T23:06:43.106Z,13.33
2023-05-21T23:09:12.683Z,16.57
2023-05-21T23:11:40.844Z,14.60
2023-05-21T23:14:08.984Z,15.57
2023-05-21T23:16:37.122Z,15.43
2023-05-21T23:19:05.496Z,14.70
2023-05-21T23:21:34.991Z,13.30
2023-05-21T23:24:03.332Z,14.80
2023-05-21T23:26:31.645Z,16.03
2023-05-21T23:28:59.925Z,15.47
2023-05-21T23:31:28.247Z,15.37
2023-05-21T23:33:56.944Z,14.33
2023-05-21T23:36:25.072Z,14.47
2023-05-21T23:38:54.560Z,15.10
2023-05-21T23:41:23.051Z,14.50
2023-05-21T23:43:51.469Z,15.50
2023-05-21T23:46:19.632Z,15.23
2023-05-21T23:48:47.773Z,14.40
2023-05-21T23:51:16.249Z,14.10
2023-05-21T23:53:44.311Z,14.00
2023-05-21T23:56:13.812Z,14.60
2023-05-21T23:58:42.730Z,15.73
